sensor_id;sensor_type;location;lat;lon;timestamp;temperature;humidity
9800;DHT22;4939;52.00085300;4.17406100;2023-05-17T00:01:32;10.80;99.90
9800;DHT22;4939;52.00085300;4.17406100;2023-05-17T00:03:58;10.80;99.90
9800;DHT22;4939;52.00085300;4.17406100;2023-05-17T00:06:23;10.80;99.90
9800;DHT22;4939;52.00085300;4.17406100;2023-05-17T00:08:49;10.80;99.90
9800;DHT22;4939;52.00085300;4.17406100;2023-05-17T00:11:14;10.80;99.90
9800;DHT22;4939;52.00085300;4.17406100;2023-05-17T00:13:40;10.80;99.90
9800;DHT22;4939;52.00085300;4.17406100;2023-05-17T00:16:07;10.90;99.90
9800;DHT22;4939;52.00085300;4.17406100;2023-05-17T00:18:32;10.80;99.90
9800;DHT22;4939;52.00085300;4.17406100;2023-05-17T00:23:24;10.80;99.90
9800;DHT22;4939;52.00085300;4.17406100;2023-05-17T00:28:16;10.80;99.90
9800;DHT22;4939;52.00085300;4.17406100;2023-05-17T00:30:41;10.90;99.90
9800;DHT22;4939;52.00085300;4.17406100;2023-05-17T00:33:07;10.90;99.90
9800;DHT22;4939;52.00085300;4.17406100;2023-05-17T00:35:33;10.90;99.90
9800;DHT22;4939;52.00085300;4.17406100;2023-05-17T00:40:24;11.00;99.90
9800;DHT22;4939;52.00085300;4.17406100;2023-05-17T00:42:50;11.00;99.90
9800;DHT22;4939;52.00085300;4.17406100;2023-05-17T00:45:16;11.10;99.90
9800;DHT22;4939;52.00085300;4.17406100;2023-05-17T00:47:41;11.10;99.90
9800;DHT22;4939;52.00085300;4.17406100;2023-05-17T00:50:07;11.00;99.90
9800;DHT22;4939;52.00085300;4.17406100;2023-05-17T00:52:34;11.00;99.90
9800;DHT22;4939;52.00085300;4.17406100;2023-05-17T00:57:26;11.00;99.90
9800;DHT22;4939;52.00085300;4.17406100;2023-05-17T00:59:54;11.00;99.90
9800;DHT22;4939;52.00085300;4.17406100;2023-05-17T01:02:20;10.90;99.90
9800;DHT22;4939;52.00085300;4.17406100;2023-05-17T01:04:47;10.90;99.90
9800;DHT22;4939;52.00085300;4.17406100;2023-05-17T01:07:12;11.00;99.90
9800;DHT22;4939;52.00085300;4.17406100;2023-05-17T01:09:38;11.00;99.90
9800;DHT22;4939;52.00085300;4.17406100;2023-05-17T01:12:06;11.00;99.90
9800;DHT22;4939;52.00085300;4.17406100;2023-05-17T01:17:38;11.00;99.90
9800;DHT22;4939;52.00085300;4.17406100;2023-05-17T01:23:06;11.00;99.90
9800;DHT22;4939;52.00085300;4.17406100;2023-05-17T01:28:23;11.00;99.90
9800;DHT22;4939;52.00085300;4.17406100;2023-05-17T01:30:50;11.00;99.90
9800;DHT22;4939;52.00085300;4.17406100;2023-05-17T01:33:20;11.10;99.90
9800;DHT22;4939;52.00085300;4.17406100;2023-05-17T01:35:46;11.10;99.90
9800;DHT22;4939;52.00085300;4.17406100;2023-05-17T01:41:03;11.20;99.90
9800;DHT22;4939;52.00085300;4.17406100;2023-05-17T01:46:25;11.10;99.90
9800;DHT22;4939;52.00085300;4.17406100;2023-05-17T01:49:19;11.10;99.90
9800;DHT22;4939;52.00085300;4.17406100;2023-05-17T01:52:18;11.20;99.90
9800;DHT22;4939;52.00085300;4.17406100;2023-05-17T01:54:52;11.20;99.90
9800;DHT22;4939;52.00085300;4.17406100;2023-05-17T01:57:19;11.20;99.90
9800;DHT22;4939;52.00085300;4.17406100;2023-05-17T01:59:50;11.20;99.90
9800;DHT22;4939;52.00085300;4.17406100;2023-05-17T02:02:16;11.20;99.90
9800;DHT22;4939;52.00085300;4.17406100;2023-05-17T02:04:42;11.20;99.90
9800;DHT22;4939;52.00085300;4.17406100;2023-05-17T02:07:08;11.20;99.90
9800;DHT22;4939;52.00085300;4.17406100;2023-05-17T02:09:33;11.20;99.90
9800;DHT22;4939;52.00085300;4.17406100;2023-05-17T02:11:59;11.20;99.90
9800;DHT22;4939;52.00085300;4.17406100;2023-05-17T02:14:31;11.20;99.90
9800;DHT22;4939;52.00085300;4.17406100;2023-05-17T02:16:57;11.30;99.90
9800;DHT22;4939;52.00085300;4.17406100;2023-05-17T02:24:14;11.30;99.90
9800;DHT22;4939;52.00085300;4.17406100;2023-05-17T02:26:40;11.30;99.90
9800;DHT22;4939;52.00085300;4.17406100;2023-05-17T02:29:08;11.30;99.90
9800;DHT22;4939;52.00085300;4.17406100;2023-05-17T02:34:01;11.30;99.90
9800;DHT22;4939;52.00085300;4.17406100;2023-05-17T02:36:27;11.30;99.90
9800;DHT22;4939;52.00085300;4.17406100;2023-05-17T02:38:52;11.40;99.90
9800;DHT22;4939;52.00085300;4.17406100;2023-05-17T02:41:18;11.30;99.90
9800;DHT22;4939;52.00085300;4.17406100;2023-05-17T02:43:43;11.30;99.90
9800;DHT22;4939;52.00085300;4.17406100;2023-05-17T02:51:02;11.40;99.90
9800;DHT22;4939;52.00085300;4.17406100;2023-05-17T02:53:27;11.40;99.90
9800;DHT22;4939;52.00085300;4.17406100;2023-05-17T02:55:53;11.30;99.90
9800;DHT22;4939;52.00085300;4.17406100;2023-05-17T02:58:22;11.30;99.90
9800;DHT22;4939;52.00085300;4.17406100;2023-05-17T03:00:48;11.40;99.90
9800;DHT22;4939;52.00085300;4.17406100;2023-05-17T03:03:14;11.40;99.90
9800;DHT22;4939;52.00085300;4.17406100;2023-05-17T03:05:40;11.40;99.90
9800;DHT22;4939;52.00085300;4.17406100;2023-05-17T03:10:31;11.40;99.90
9800;DHT22;4939;52.00085300;4.17406100;2023-05-17T03:17:51;11.40;99.90
9800;DHT22;4939;52.00085300;4.17406100;2023-05-17T03:20:17;11.40;99.90
9800;DHT22;4939;52.00085300;4.17406100;2023-05-17T03:22:43;11.30;99.90
9800;DHT22;4939;52.00085300;4.17406100;2023-05-17T03:25:08;11.30;99.90
9800;DHT22;4939;52.00085300;4.17406100;2023-05-17T03:27:34;11.30;99.90
9800;DHT22;4939;52.00085300;4.17406100;2023-05-17T03:30:00;11.30;99.90
9800;DHT22;4939;52.00085300;4.17406100;2023-05-17T03:32:27;11.30;99.90
9800;DHT22;4939;52.00085300;4.17406100;2023-05-17T03:34:53;11.30;99.90
9800;DHT22;4939;52.00085300;4.17406100;2023-05-17T03:37:18;11.30;99.90
9800;DHT22;4939;52.00085300;4.17406100;2023-05-17T03:39:44;11.30;99.90
9800;DHT22;4939;52.00085300;4.17406100;2023-05-17T03:42:09;11.10;99.90
9800;DHT22;4939;52.00085300;4.17406100;2023-05-17T03:49:27;11.20;99.90
9800;DHT22;4939;52.00085300;4.17406100;2023-05-17T03:51:53;11.20;99.90
9800;DHT22;4939;52.00085300;4.17406100;2023-05-17T03:54:18;11.20;99.90
9800;DHT22;4939;52.00085300;4.17406100;2023-05-17T03:56:44;11.20;99.90
9800;DHT22;4939;52.00085300;4.17406100;2023-05-17T03:59:12;11.20;99.90
9800;DHT22;4939;52.00085300;4.17406100;2023-05-17T04:01:38;11.10;99.90
9800;DHT22;4939;52.00085300;4.17406100;2023-05-17T04:04:04;11.10;99.90
9800;DHT22;4939;52.00085300;4.17406100;2023-05-17T04:06:30;11.10;99.90
9800;DHT22;4939;52.00085300;4.17406100;2023-05-17T04:08:56;11.20;99.90
9800;DHT22;4939;52.00085300;4.17406100;2023-05-17T04:11:24;11.00;99.90
9800;DHT22;4939;52.00085300;4.17406100;2023-05-17T04:16:17;11.00;99.90
9800;DHT22;4939;52.00085300;4.17406100;2023-05-17T04:18:43;11.00;99.90
9800;DHT22;4939;52.00085300;4.17406100;2023-05-17T04:21:09;11.00;99.90
9800;DHT22;4939;52.00085300;4.17406100;2023-05-17T04:23:35;11.00;99.90
9800;DHT22;4939;52.00085300;4.17406100;2023-05-17T04:26:01;10.90;99.90
9800;DHT22;4939;52.00085300;4.17406100;2023-05-17T04:28:28;11.00;99.90
9800;DHT22;4939;52.00085300;4.17406100;2023-05-17T04:30:54;11.00;99.90
9800;DHT22;4939;52.00085300;4.17406100;2023-05-17T04:33:20;11.10;99.90
9800;DHT22;4939;52.00085300;4.17406100;2023-05-17T04:35:46;11.10;99.90
9800;DHT22;4939;52.00085300;4.17406100;2023-05-17T04:40:38;11.20;99.90
9800;DHT22;4939;52.00085300;4.17406100;2023-05-17T04:43:04;11.30;99.90
9800;DHT22;4939;52.00085300;4.17406100;2023-05-17T04:45:30;11.30;99.90
9800;DHT22;4939;52.00085300;4.17406100;2023-05-17T04:47:57;11.30;99.90
9800;DHT22;4939;52.00085300;4.17406100;2023-05-17T04:50:24;11.30;99.90
9800;DHT22;4939;52.00085300;4.17406100;2023-05-17T04:52:50;11.20;99.90
9800;DHT22;4939;52.00085300;4.17406100;2023-05-17T04:55:15;11.20;99.90
9800;DHT22;4939;52.00085300;4.17406100;2023-05-17T04:57:41;11.20;99.90
9800;DHT22;4939;52.00085300;4.17406100;2023-05-17T05:00:07;11.20;99.90
9800;DHT22;4939;52.00085300;4.17406100;2023-05-17T05:02:35;11.20;99.90
9800;DHT22;4939;52.00085300;4.17406100;2023-05-17T05:05:01;11.10;99.90
9800;DHT22;4939;52.00085300;4.17406100;2023-05-17T05:09:55;11.20;99.90
9800;DHT22;4939;52.00085300;4.17406100;2023-05-17T05:12:23;11.20;99.90
9800;DHT22;4939;52.00085300;4.17406100;2023-05-17T05:14:50;11.20;99.90
9800;DHT22;4939;52.00085300;4.17406100;2023-05-17T05:19:42;11.40;99.90
9800;DHT22;4939;52.00085300;4.17406100;2023-05-17T05:24:33;11.30;99.90
9800;DHT22;4939;52.00085300;4.17406100;2023-05-17T05:29:25;11.30;99.90
9800;DHT22;4939;52.00085300;4.17406100;2023-05-17T05:31:53;11.40;99.90
9800;DHT22;4939;52.00085300;4.17406100;2023-05-17T05:34:19;11.30;99.90
9800;DHT22;4939;52.00085300;4.17406100;2023-05-17T05:36:45;11.40;99.90
9800;DHT22;4939;52.00085300;4.17406100;2023-05-17T05:39:11;11.50;99.90
9800;DHT22;4939;52.00085300;4.17406100;2023-05-17T05:41:37;11.40;99.90
9800;DHT22;4939;52.00085300;4.17406100;2023-05-17T05:44:02;11.40;99.90
9800;DHT22;4939;52.00085300;4.17406100;2023-05-17T05:48:54;11.60;99.90
9800;DHT22;4939;52.00085300;4.17406100;2023-05-17T05:51:20;11.50;99.90
9800;DHT22;4939;52.00085300;4.17406100;2023-05-17T05:53:45;11.60;99.90
9800;DHT22;4939;52.00085300;4.17406100;2023-05-17T05:56:11;11.60;99.90
9800;DHT22;4939;52.00085300;4.17406100;2023-05-17T05:58:36;11.60;99.90
9800;DHT22;4939;52.00085300;4.17406100;2023-05-17T06:03:28;11.70;99.90
9800;DHT22;4939;52.00085300;4.17406100;2023-05-17T06:05:54;11.70;99.90
9800;DHT22;4939;52.00085300;4.17406100;2023-05-17T06:08:20;11.70;99.90
9800;DHT22;4939;52.00085300;4.17406100;2023-05-17T06:10:45;11.70;99.90
9800;DHT22;4939;52.00085300;4.17406100;2023-05-17T06:15:37;11.90;99.90
9800;DHT22;4939;52.00085300;4.17406100;2023-05-17T06:18:03;11.90;99.90
9800;DHT22;4939;52.00085300;4.17406100;2023-05-17T06:20:28;12.00;99.90
9800;DHT22;4939;52.00085300;4.17406100;2023-05-17T06:22:54;12.00;99.90
9800;DHT22;4939;52.00085300;4.17406100;2023-05-17T06:25:20;11.80;99.90
9800;DHT22;4939;52.00085300;4.17406100;2023-05-17T06:30:12;11.90;99.90
9800;DHT22;4939;52.00085300;4.17406100;2023-05-17T06:32:37;12.00;99.90
9800;DHT22;4939;52.00085300;4.17406100;2023-05-17T06:35:03;12.10;99.90
9800;DHT22;4939;52.00085300;4.17406100;2023-05-17T06:37:29;12.00;99.90
9800;DHT22;4939;52.00085300;4.17406100;2023-05-17T06:40:02;12.00;99.90
9800;DHT22;4939;52.00085300;4.17406100;2023-05-17T06:42:31;11.90;99.90
9800;DHT22;4939;52.00085300;4.17406100;2023-05-17T06:44:57;11.90;99.90
9800;DHT22;4939;52.00085300;4.17406100;2023-05-17T06:49:49;12.00;99.90
9800;DHT22;4939;52.00085300;4.17406100;2023-05-17T06:52:15;12.00;99.90
9800;DHT22;4939;52.00085300;4.17406100;2023-05-17T06:57:06;12.10;99.90
9800;DHT22;4939;52.00085300;4.17406100;2023-05-17T06:59:37;12.20;99.90
9800;DHT22;4939;52.00085300;4.17406100;2023-05-17T07:02:03;12.80;99.90
9800;DHT22;4939;52.00085300;4.17406100;2023-05-17T07:04:28;12.30;99.90
9800;DHT22;4939;52.00085300;4.17406100;2023-05-17T07:06:54;12.50;99.90
9800;DHT22;4939;52.00085300;4.17406100;2023-05-17T07:11:46;12.60;99.90
9800;DHT22;4939;52.00085300;4.17406100;2023-05-17T07:16:38;12.70;99.90
9800;DHT22;4939;52.00085300;4.17406100;2023-05-17T07:19:04;12.80;99.90
9800;DHT22;4939;52.00085300;4.17406100;2023-05-17T07:21:30;12.80;99.90
9800;DHT22;4939;52.00085300;4.17406100;2023-05-17T07:23:56;12.90;99.90
9800;DHT22;4939;52.00085300;4.17406100;2023-05-17T07:26:21;13.00;99.90
9800;DHT22;4939;52.00085300;4.17406100;2023-05-17T07:28:47;13.10;99.90
9800;DHT22;4939;52.00085300;4.17406100;2023-05-17T07:31:13;13.00;99.90
9800;DHT22;4939;52.00085300;4.17406100;2023-05-17T07:33:39;13.10;99.90
9800;DHT22;4939;52.00085300;4.17406100;2023-05-17T07:36:05;13.10;99.90
9800;DHT22;4939;52.00085300;4.17406100;2023-05-17T07:38:31;13.10;99.90
9800;DHT22;4939;52.00085300;4.17406100;2023-05-17T07:41:00;13.20;99.90
9800;DHT22;4939;52.00085300;4.17406100;2023-05-17T07:43:26;13.20;99.90
9800;DHT22;4939;52.00085300;4.17406100;2023-05-17T07:45:51;13.30;99.90
9800;DHT22;4939;52.00085300;4.17406100;2023-05-17T07:50:43;13.50;99.90
9800;DHT22;4939;52.00085300;4.17406100;2023-05-17T07:53:09;13.70;99.90
9800;DHT22;4939;52.00085300;4.17406100;2023-05-17T07:58:01;13.60;99.90
9800;DHT22;4939;52.00085300;4.17406100;2023-05-17T08:00:26;13.50;99.90
9800;DHT22;4939;52.00085300;4.17406100;2023-05-17T08:02:52;13.50;99.90
9800;DHT22;4939;52.00085300;4.17406100;2023-05-17T08:05:18;13.20;99.90
9800;DHT22;4939;52.00085300;4.17406100;2023-05-17T08:07:43;13.20;99.90
9800;DHT22;4939;52.00085300;4.17406100;2023-05-17T08:10:09;13.20;99.90
9800;DHT22;4939;52.00085300;4.17406100;2023-05-17T08:15:01;13.10;99.90
9800;DHT22;4939;52.00085300;4.17406100;2023-05-17T08:23:02;13.00;99.90
9800;DHT22;4939;52.00085300;4.17406100;2023-05-17T08:25:28;13.20;99.90
9800;DHT22;4939;52.00085300;4.17406100;2023-05-17T08:27:53;13.30;99.90
9800;DHT22;4939;52.00085300;4.17406100;2023-05-17T08:32:45;13.70;99.90
9800;DHT22;4939;52.00085300;4.17406100;2023-05-17T08:35:11;13.80;99.90
9800;DHT22;4939;52.00085300;4.17406100;2023-05-17T08:40:04;13.80;99.90
9800;DHT22;4939;52.00085300;4.17406100;2023-05-17T08:42:31;14.00;99.90
9800;DHT22;4939;52.00085300;4.17406100;2023-05-17T08:44:59;13.80;99.90
9800;DHT22;4939;52.00085300;4.17406100;2023-05-17T08:47:28;13.90;99.90
9800;DHT22;4939;52.00085300;4.17406100;2023-05-17T08:49:57;13.90;99.90
9800;DHT22;4939;52.00085300;4.17406100;2023-05-17T08:52:28;14.10;99.90
9800;DHT22;4939;52.00085300;4.17406100;2023-05-17T08:54:54;14.30;99.90
9800;DHT22;4939;52.00085300;4.17406100;2023-05-17T08:57:21;14.40;99.90
9800;DHT22;4939;52.00085300;4.17406100;2023-05-17T08:59:49;14.50;99.90
9800;DHT22;4939;52.00085300;4.17406100;2023-05-17T09:02:16;14.40;99.90
9800;DHT22;4939;52.00085300;4.17406100;2023-05-17T09:04:43;14.30;99.90
9800;DHT22;4939;52.00085300;4.17406100;2023-05-17T09:07:08;14.60;99.90
9800;DHT22;4939;52.00085300;4.17406100;2023-05-17T09:09:34;14.60;99.90
9800;DHT22;4939;52.00085300;4.17406100;2023-05-17T09:12:00;14.90;99.90
9800;DHT22;4939;52.00085300;4.17406100;2023-05-17T09:14:33;15.20;99.90
9800;DHT22;4939;52.00085300;4.17406100;2023-05-17T09:17:01;15.30;99.90
9800;DHT22;4939;52.00085300;4.17406100;2023-05-17T09:19:27;15.40;99.90
9800;DHT22;4939;52.00085300;4.17406100;2023-05-17T09:21:54;15.40;99.90
9800;DHT22;4939;52.00085300;4.17406100;2023-05-17T09:24:28;15.80;99.90
9800;DHT22;4939;52.00085300;4.17406100;2023-05-17T09:27:00;16.00;99.90
9800;DHT22;4939;52.00085300;4.17406100;2023-05-17T09:29:29;15.90;99.90
9800;DHT22;4939;52.00085300;4.17406100;2023-05-17T09:31:55;16.00;99.90
9800;DHT22;4939;52.00085300;4.17406100;2023-05-17T09:34:23;16.00;99.90
9800;DHT22;4939;52.00085300;4.17406100;2023-05-17T09:36:49;15.60;99.90
9800;DHT22;4939;52.00085300;4.17406100;2023-05-17T09:39:15;15.40;99.90
9800;DHT22;4939;52.00085300;4.17406100;2023-05-17T09:41:44;15.50;99.90
9800;DHT22;4939;52.00085300;4.17406100;2023-05-17T09:44:12;15.70;99.90
9800;DHT22;4939;52.00085300;4.17406100;2023-05-17T09:46:44;15.50;99.90
9800;DHT22;4939;52.00085300;4.17406100;2023-05-17T09:49:09;15.70;99.90
9800;DHT22;4939;52.00085300;4.17406100;2023-05-17T09:51:43;15.80;99.90
9800;DHT22;4939;52.00085300;4.17406100;2023-05-17T09:54:09;15.70;99.90
9800;DHT22;4939;52.00085300;4.17406100;2023-05-17T09:56:35;15.80;99.90
9800;DHT22;4939;52.00085300;4.17406100;2023-05-17T09:59:02;15.80;99.90
9800;DHT22;4939;52.00085300;4.17406100;2023-05-17T10:01:28;15.50;99.90
9800;DHT22;4939;52.00085300;4.17406100;2023-05-17T10:03:55;15.70;99.90
9800;DHT22;4939;52.00085300;4.17406100;2023-05-17T10:06:24;15.70;99.90
9800;DHT22;4939;52.00085300;4.17406100;2023-05-17T10:08:51;15.70;99.90
9800;DHT22;4939;52.00085300;4.17406100;2023-05-17T10:11:23;15.90;99.90
9800;DHT22;4939;52.00085300;4.17406100;2023-05-17T10:14:31;15.90;99.90
9800;DHT22;4939;52.00085300;4.17406100;2023-05-17T10:19:24;15.70;99.90
9800;DHT22;4939;52.00085300;4.17406100;2023-05-17T10:21:51;15.80;99.90
9800;DHT22;4939;52.00085300;4.17406100;2023-05-17T10:24:19;15.30;99.90
9800;DHT22;4939;52.00085300;4.17406100;2023-05-17T10:26:50;15.50;99.90
9800;DHT22;4939;52.00085300;4.17406100;2023-05-17T10:29:16;15.60;99.90
9800;DHT22;4939;52.00085300;4.17406100;2023-05-17T10:31:45;15.70;99.90
9800;DHT22;4939;52.00085300;4.17406100;2023-05-17T10:34:12;16.00;99.90
9800;DHT22;4939;52.00085300;4.17406100;2023-05-17T10:36:42;16.10;99.90
9800;DHT22;4939;52.00085300;4.17406100;2023-05-17T10:39:08;16.10;99.90
9800;DHT22;4939;52.00085300;4.17406100;2023-05-17T10:41:39;15.60;99.90
9800;DHT22;4939;52.00085300;4.17406100;2023-05-17T10:44:07;15.80;99.90
9800;DHT22;4939;52.00085300;4.17406100;2023-05-17T10:46:35;16.10;99.90
9800;DHT22;4939;52.00085300;4.17406100;2023-05-17T10:49:01;16.00;99.90
9800;DHT22;4939;52.00085300;4.17406100;2023-05-17T10:51:35;16.00;99.90
9800;DHT22;4939;52.00085300;4.17406100;2023-05-17T10:56:31;16.10;99.90
9800;DHT22;4939;52.00085300;4.17406100;2023-05-17T10:59:16;15.80;99.90
9800;DHT22;4939;52.00085300;4.17406100;2023-05-17T11:01:58;16.20;99.90
9800;DHT22;4939;52.00085300;4.17406100;2023-05-17T11:06:55;15.80;99.90
9800;DHT22;4939;52.00085300;4.17406100;2023-05-17T11:09:39;15.80;99.90
9800;DHT22;4939;52.00085300;4.17406100;2023-05-17T11:12:07;16.10;99.90
9800;DHT22;4939;52.00085300;4.17406100;2023-05-17T11:17:19;16.00;99.90
9800;DHT22;4939;52.00085300;4.17406100;2023-05-17T11:22:27;16.00;99.90
9800;DHT22;4939;52.00085300;4.17406100;2023-05-17T11:24:55;16.50;99.90
9800;DHT22;4939;52.00085300;4.17406100;2023-05-17T11:27:22;16.00;99.90
9800;DHT22;4939;52.00085300;4.17406100;2023-05-17T11:29:55;15.90;99.90
9800;DHT22;4939;52.00085300;4.17406100;2023-05-17T11:32:29;15.70;99.90
9800;DHT22;4939;52.00085300;4.17406100;2023-05-17T11:34:56;15.30;99.90
9800;DHT22;4939;52.00085300;4.17406100;2023-05-17T11:37:25;15.60;99.90
9800;DHT22;4939;52.00085300;4.17406100;2023-05-17T11:40:05;15.20;99.90
9800;DHT22;4939;52.00085300;4.17406100;2023-05-17T11:42:33;15.00;99.90
9800;DHT22;4939;52.00085300;4.17406100;2023-05-17T11:45:00;15.00;99.90
9800;DHT22;4939;52.00085300;4.17406100;2023-05-17T11:47:26;15.40;99.90
9800;DHT22;4939;52.00085300;4.17406100;2023-05-17T11:50:00;15.30;99.90
9800;DHT22;4939;52.00085300;4.17406100;2023-05-17T11:52:30;15.10;99.90
9800;DHT22;4939;52.00085300;4.17406100;2023-05-17T11:54:57;15.20;99.90
9800;DHT22;4939;52.00085300;4.17406100;2023-05-17T11:57:30;15.20;99.90
9800;DHT22;4939;52.00085300;4.17406100;2023-05-17T11:59:59;15.20;99.90
9800;DHT22;4939;52.00085300;4.17406100;2023-05-17T12:02:29;15.50;99.90
9800;DHT22;4939;52.00085300;4.17406100;2023-05-17T12:07:21;15.50;99.90
9800;DHT22;4939;52.00085300;4.17406100;2023-05-17T12:09:47;15.60;99.90
9800;DHT22;4939;52.00085300;4.17406100;2023-05-17T12:12:13;15.50;99.90
9800;DHT22;4939;52.00085300;4.17406100;2023-05-17T12:14:42;15.60;99.90
9800;DHT22;4939;52.00085300;4.17406100;2023-05-17T12:17:12;15.40;99.90
9800;DHT22;4939;52.00085300;4.17406100;2023-05-17T12:19:40;15.50;99.90
9800;DHT22;4939;52.00085300;4.17406100;2023-05-17T12:22:10;15.30;99.90
9800;DHT22;4939;52.00085300;4.17406100;2023-05-17T12:24:42;15.40;99.90
9800;DHT22;4939;52.00085300;4.17406100;2023-05-17T12:27:09;15.50;99.90
9800;DHT22;4939;52.00085300;4.17406100;2023-05-17T12:29:34;15.40;99.90
9800;DHT22;4939;52.00085300;4.17406100;2023-05-17T12:32:00;15.70;99.90
9800;DHT22;4939;52.00085300;4.17406100;2023-05-17T12:34:27;15.40;99.90
9800;DHT22;4939;52.00085300;4.17406100;2023-05-17T12:36:54;15.70;99.90
9800;DHT22;4939;52.00085300;4.17406100;2023-05-17T12:39:20;15.70;99.90
9800;DHT22;4939;52.00085300;4.17406100;2023-05-17T12:41:49;15.70;99.90
9800;DHT22;4939;52.00085300;4.17406100;2023-05-17T12:44:16;15.80;99.90
9800;DHT22;4939;52.00085300;4.17406100;2023-05-17T12:46:42;15.90;99.90
9800;DHT22;4939;52.00085300;4.17406100;2023-05-17T12:49:09;15.80;99.90
9800;DHT22;4939;52.00085300;4.17406100;2023-05-17T12:51:46;15.30;99.90
9800;DHT22;4939;52.00085300;4.17406100;2023-05-17T12:54:26;15.10;99.90
9800;DHT22;4939;52.00085300;4.17406100;2023-05-17T12:56:52;15.40;99.90
9800;DHT22;4939;52.00085300;4.17406100;2023-05-17T12:59:18;15.60;99.90
9800;DHT22;4939;52.00085300;4.17406100;2023-05-17T13:01:50;15.70;99.90
9800;DHT22;4939;52.00085300;4.17406100;2023-05-17T13:04:18;15.90;99.90
9800;DHT22;4939;52.00085300;4.17406100;2023-05-17T13:06:49;15.90;99.90
9800;DHT22;4939;52.00085300;4.17406100;2023-05-17T13:09:16;16.00;99.90
9800;DHT22;4939;52.00085300;4.17406100;2023-05-17T13:11:43;15.60;99.90
9800;DHT22;4939;52.00085300;4.17406100;2023-05-17T13:14:14;15.50;99.90
9800;DHT22;4939;52.00085300;4.17406100;2023-05-17T13:16:39;15.70;99.90
9800;DHT22;4939;52.00085300;4.17406100;2023-05-17T13:19:14;15.40;99.90
9800;DHT22;4939;52.00085300;4.17406100;2023-05-17T13:21:40;15.70;99.90
9800;DHT22;4939;52.00085300;4.17406100;2023-05-17T13:24:08;15.70;99.90
9800;DHT22;4939;52.00085300;4.17406100;2023-05-17T13:26:34;16.10;99.90
9800;DHT22;4939;52.00085300;4.17406100;2023-05-17T13:28:59;16.10;99.90
9800;DHT22;4939;52.00085300;4.17406100;2023-05-17T13:31:25;15.80;99.90
9800;DHT22;4939;52.00085300;4.17406100;2023-05-17T13:36:17;16.00;99.90
9800;DHT22;4939;52.00085300;4.17406100;2023-05-17T13:41:09;16.00;99.90
9800;DHT22;4939;52.00085300;4.17406100;2023-05-17T13:43:35;16.10;99.90
9800;DHT22;4939;52.00085300;4.17406100;2023-05-17T13:46:01;16.40;99.90
9800;DHT22;4939;52.00085300;4.17406100;2023-05-17T13:48:28;16.30;99.90
9800;DHT22;4939;52.00085300;4.17406100;2023-05-17T13:50:53;16.70;99.90
9800;DHT22;4939;52.00085300;4.17406100;2023-05-17T13:53:19;16.50;99.90
9800;DHT22;4939;52.00085300;4.17406100;2023-05-17T13:55:45;16.20;99.90
9800;DHT22;4939;52.00085300;4.17406100;2023-05-17T13:58:12;16.30;99.90
9800;DHT22;4939;52.00085300;4.17406100;2023-05-17T14:00:38;16.20;99.90
9800;DHT22;4939;52.00085300;4.17406100;2023-05-17T14:03:07;16.20;99.90
9800;DHT22;4939;52.00085300;4.17406100;2023-05-17T14:05:33;15.80;99.90
9800;DHT22;4939;52.00085300;4.17406100;2023-05-17T14:08:01;15.70;99.90
9800;DHT22;4939;52.00085300;4.17406100;2023-05-17T14:10:27;16.30;99.90
9800;DHT22;4939;52.00085300;4.17406100;2023-05-17T14:12:52;16.20;99.90
9800;DHT22;4939;52.00085300;4.17406100;2023-05-17T14:15:18;16.00;99.90
9800;DHT22;4939;52.00085300;4.17406100;2023-05-17T14:17:43;15.50;99.90
9800;DHT22;4939;52.00085300;4.17406100;2023-05-17T14:20:09;15.50;99.90
9800;DHT22;4939;52.00085300;4.17406100;2023-05-17T14:22:35;16.30;99.90
9800;DHT22;4939;52.00085300;4.17406100;2023-05-17T14:25:01;16.60;99.90
9800;DHT22;4939;52.00085300;4.17406100;2023-05-17T14:27:26;16.50;99.90
9800;DHT22;4939;52.00085300;4.17406100;2023-05-17T14:29:52;16.30;99.90
9800;DHT22;4939;52.00085300;4.17406100;2023-05-17T14:32:18;16.50;99.90
9800;DHT22;4939;52.00085300;4.17406100;2023-05-17T14:34:43;16.00;99.90
9800;DHT22;4939;52.00085300;4.17406100;2023-05-17T14:37:09;16.00;99.90
9800;DHT22;4939;52.00085300;4.17406100;2023-05-17T14:39:35;15.90;99.90
9800;DHT22;4939;52.00085300;4.17406100;2023-05-17T14:42:01;16.20;99.90
9800;DHT22;4939;52.00085300;4.17406100;2023-05-17T14:44:26;16.20;99.90
9800;DHT22;4939;52.00085300;4.17406100;2023-05-17T14:46:52;16.20;99.90
9800;DHT22;4939;52.00085300;4.17406100;2023-05-17T14:49:17;16.30;99.90
9800;DHT22;4939;52.00085300;4.17406100;2023-05-17T14:51:43;16.00;99.90
9800;DHT22;4939;52.00085300;4.17406100;2023-05-17T14:54:09;16.10;99.90
9800;DHT22;4939;52.00085300;4.17406100;2023-05-17T14:56:35;16.10;99.90
9800;DHT22;4939;52.00085300;4.17406100;2023-05-17T14:59:01;15.90;99.90
9800;DHT22;4939;52.00085300;4.17406100;2023-05-17T15:01:26;15.60;99.90
9800;DHT22;4939;52.00085300;4.17406100;2023-05-17T15:03:52;15.40;99.90
9800;DHT22;4939;52.00085300;4.17406100;2023-05-17T15:06:18;15.70;99.90
9800;DHT22;4939;52.00085300;4.17406100;2023-05-17T15:08:49;15.60;99.90
9800;DHT22;4939;52.00085300;4.17406100;2023-05-17T15:11:15;15.50;99.90
9800;DHT22;4939;52.00085300;4.17406100;2023-05-17T15:13:40;15.90;99.90
9800;DHT22;4939;52.00085300;4.17406100;2023-05-17T15:18:33;15.50;99.90
9800;DHT22;4939;52.00085300;4.17406100;2023-05-17T15:21:00;15.70;99.90
9800;DHT22;4939;52.00085300;4.17406100;2023-05-17T15:25:52;15.20;99.90
9800;DHT22;4939;52.00085300;4.17406100;2023-05-17T15:28:17;15.20;99.90
9800;DHT22;4939;52.00085300;4.17406100;2023-05-17T15:30:45;15.70;99.90
9800;DHT22;4939;52.00085300;4.17406100;2023-05-17T15:35:40;15.30;99.90
9800;DHT22;4939;52.00085300;4.17406100;2023-05-17T15:38:06;15.40;99.90
9800;DHT22;4939;52.00085300;4.17406100;2023-05-17T15:40:31;15.80;99.90
9800;DHT22;4939;52.00085300;4.17406100;2023-05-17T15:42:58;15.50;99.90
9800;DHT22;4939;52.00085300;4.17406100;2023-05-17T15:45:24;15.20;99.90
9800;DHT22;4939;52.00085300;4.17406100;2023-05-17T15:47:49;15.10;99.90
9800;DHT22;4939;52.00085300;4.17406100;2023-05-17T15:50:15;15.30;99.90
9800;DHT22;4939;52.00085300;4.17406100;2023-05-17T15:55:07;15.70;99.90
9800;DHT22;4939;52.00085300;4.17406100;2023-05-17T15:57:33;15.40;99.90